createdAt,value
2023-01-21T00:01:00.939Z,-0.87
2023-01-21T00:03:27.482Z,-1.17
2023-01-21T00:05:54.711Z,-1.47
2023-01-21T00:08:21.209Z,-1.18
2023-01-21T00:10:47.564Z,-0.85
2023-01-21T00:13:14.053Z,-1.15
2023-01-21T00:15:40.585Z,-0.78
2023-01-21T00:18:07.830Z,-1.13
2023-01-21T00:20:34.747Z,-0.92
2023-01-21T00:23:01.277Z,-0.63
2023-01-21T00:25:27.732Z,-0.72
2023-01-21T00:27:54.239Z,-0.95
2023-01-21T00:30:20.641Z,-0.79
2023-01-21T00:32:47.643Z,-1.02
2023-01-21T00:35:14.147Z,-1.00
2023-01-21T00:37:40.565Z,-0.78
2023-01-21T00:40:07.624Z,-0.86
2023-01-21T00:42:34.260Z,-0.93
2023-01-21T00:45:00.771Z,-0.61
2023-01-21T00:47:27.939Z,-0.57
2023-01-21T00:49:54.272Z,-0.63
2023-01-21T00:52:20.841Z,-1.15
2023-01-21T00:54:47.244Z,-0.75
2023-01-21T00:57:13.997Z,-1.29
2023-01-21T00:59:40.948Z,-1.12
2023-01-21T01:02:08.760Z,-1.32
2023-01-21T01:04:35.253Z,-1.15
2023-01-21T01:07:17.356Z,-1.13
2023-01-21T01:09:43.792Z,-1.46
2023-01-21T01:12:10.253Z,-1.19
2023-01-21T01:14:36.753Z,-1.35
2023-01-21T01:17:03.283Z,-0.82
2023-01-21T01:19:29.858Z,-1.33
2023-01-21T01:21:56.250Z,-1.03
2023-01-21T01:24:22.671Z,-1.22
2023-01-21T01:26:49.089Z,-1.26
2023-01-21T01:29:15.461Z,-0.79
2023-01-21T01:31:43.749Z,-1.20
2023-01-21T01:34:10.270Z,-1.35
2023-01-21T01:36:36.656Z,-1.05
2023-01-21T01:39:03.983Z,-1.33
2023-01-21T01:41:33.035Z,-1.52
2023-01-21T01:44:00.672Z,-1.12
2023-01-21T01:46:33.649Z,-1.13
2023-01-21T01:49:11.580Z,-1.22
2023-01-21T01:51:43.734Z,-1.12
2023-01-21T01:54:13.805Z,-0.80
2023-01-21T01:56:43.458Z,-1.01
2023-01-21T01:59:10.115Z,-0.93
2023-01-21T02:01:37.787Z,-1.01
2023-01-21T02:04:08.009Z,-1.19
2023-01-21T02:06:35.410Z,-1.01
2023-01-21T02:09:02.068Z,-0.91
2023-01-21T02:11:28.537Z,-1.15
2023-01-21T02:13:58.029Z,-0.67
2023-01-21T02:16:43.399Z,-0.69
2023-01-21T02:19:56.198Z,-0.62
2023-01-21T02:22:34.726Z,-0.61
2023-01-21T02:25:42.255Z,-0.43
2023-01-21T02:28:33.691Z,-0.64
2023-01-21T02:31:32.993Z,-0.40
2023-01-21T02:34:45.956Z,-0.24
2023-01-21T02:37:28.983Z,-0.21
2023-01-21T02:40:01.424Z,-0.53
2023-01-21T02:42:50.685Z,-0.48
2023-01-21T02:45:27.264Z,-0.40
2023-01-21T02:48:13.707Z,-0.37
2023-01-21T02:50:46.277Z,-0.14
2023-01-21T02:53:26.474Z,-0.37
2023-01-21T02:55:53.632Z,-0.58
2023-01-21T02:58:27.701Z,-0.35
2023-01-21T03:01:25.172Z,-0.15
2023-01-21T03:04:10.416Z,-0.06
2023-01-21T03:07:18.951Z,-0.05
2023-01-21T03:09:45.343Z,-0.25
2023-01-21T03:12:40.080Z,0.01
2023-01-21T03:15:37.335Z,0.06
2023-01-21T03:18:16.386Z,0.06
2023-01-21T03:20:47.549Z,0.06
2023-01-21T03:23:20.105Z,-0.11
2023-01-21T03:25:48.492Z,-0.27
2023-01-21T03:28:21.353Z,-0.09
2023-01-21T03:30:54.048Z,-0.12
2023-01-21T03:33:21.948Z,-0.10
2023-01-21T03:35:52.070Z,-0.15
2023-01-21T03:38:30.417Z,-0.08
2023-01-21T03:41:04.121Z,-0.31
2023-01-21T03:43:31.361Z,-0.28
2023-01-21T03:46:07.571Z,-0.27
2023-01-21T03:48:42.322Z,-0.30
2023-01-21T03:51:16.686Z,-0.20
2023-01-21T03:53:43.791Z,-0.10
2023-01-21T03:56:10.249Z,-0.23
2023-01-21T03:58:36.984Z,-0.47
2023-01-21T04:01:03.510Z,-0.32
2023-01-21T04:03:29.983Z,-0.23
2023-01-21T04:05:56.453Z,-0.55
2023-01-21T04:08:22.932Z,-0.58
2023-01-21T04:10:49.290Z,-0.53
2023-01-21T04:13:15.756Z,-0.81
2023-01-21T04:15:42.240Z,-0.82
2023-01-21T04:18:08.661Z,-0.49
2023-01-21T04:20:35.069Z,-0.95
2023-01-21T04:23:01.485Z,-1.05
2023-01-21T04:25:27.893Z,-1.05
2023-01-21T04:27:54.315Z,-0.80
2023-01-21T04:30:20.800Z,-0.63
2023-01-21T04:32:47.531Z,-0.51
2023-01-21T04:35:13.952Z,-0.60
2023-01-21T04:37:40.395Z,-0.86
2023-01-21T04:40:07.377Z,-0.61
2023-01-21T04:42:33.887Z,-0.94
2023-01-21T04:45:00.294Z,-0.36
2023-01-21T04:47:26.724Z,-1.08
2023-01-21T04:49:53.608Z,-0.78
2023-01-21T04:52:20.060Z,-0.74
2023-01-21T04:54:46.469Z,-1.06
2023-01-21T04:57:13.049Z,-0.87
2023-01-21T04:59:39.405Z,-0.58
2023-01-21T05:02:06.017Z,-1.01
2023-01-21T05:04:32.971Z,-1.00
2023-01-21T05:06:59.429Z,-0.84
2023-01-21T05:09:25.975Z,-0.84
2023-01-21T05:11:52.347Z,-0.80
2023-01-21T05:14:18.785Z,-0.76
2023-01-21T05:16:45.255Z,-0.81
2023-01-21T05:19:11.841Z,-0.49
2023-01-21T05:21:38.311Z,-0.71
2023-01-21T05:24:04.811Z,-0.65
2023-01-21T05:26:31.250Z,-0.97
2023-01-21T05:28:57.742Z,-0.99
2023-01-21T05:31:25.226Z,-0.84
2023-01-21T05:33:51.766Z,-1.10
2023-01-21T05:36:18.131Z,-0.88
2023-01-21T05:38:44.566Z,-1.40
2023-01-21T05:41:11.008Z,-1.14
2023-01-21T05:43:37.524Z,-1.04
2023-01-21T05:46:04.142Z,-0.99
2023-01-21T05:48:30.715Z,-0.73
2023-01-21T05:50:58.493Z,-0.52
2023-01-21T05:53:25.497Z,-0.90
2023-01-21T05:55:56.008Z,-0.80
2023-01-21T05:58:23.673Z,-0.51
2023-01-21T06:00:50.724Z,-0.72
2023-01-21T06:03:18.004Z,-0.60
2023-01-21T06:05:45.974Z,-0.68
2023-01-21T06:08:15.787Z,-0.31
2023-01-21T06:10:42.197Z,-0.53
2023-01-21T06:13:12.249Z,-0.31
2023-01-21T06:15:38.812Z,-0.36
2023-01-21T06:18:07.638Z,-0.17
2023-01-21T06:20:34.349Z,-0.10
2023-01-21T06:23:02.483Z,0.02
2023-01-21T06:25:29.795Z,-0.35
2023-01-21T06:27:57.754Z,-0.35
2023-01-21T06:30:25.433Z,-0.42
2023-01-21T06:32:52.284Z,-0.20
2023-01-21T06:35:19.327Z,-0.31
2023-01-21T06:37:46.339Z,-0.37
2023-01-21T06:40:15.576Z,-0.56
2023-01-21T06:42:46.062Z,-0.42
2023-01-21T06:45:12.921Z,-0.23
2023-01-21T06:47:43.798Z,-0.18
2023-01-21T06:50:16.224Z,-0.44
2023-01-21T06:52:44.505Z,-0.49
2023-01-21T06:55:11.007Z,-0.32
2023-01-21T06:57:38.765Z,-0.08
2023-01-21T07:00:07.323Z,-0.20
2023-01-21T07:02:33.811Z,-0.01
2023-01-21T07:05:00.470Z,-0.15
2023-01-21T07:07:27.332Z,-0.34
2023-01-21T07:09:53.821Z,-0.61
2023-01-21T07:12:20.372Z,-0.14
2023-01-21T07:14:46.787Z,-0.52
2023-01-21T07:17:13.277Z,-0.29
2023-01-21T07:19:39.665Z,-0.13
2023-01-21T07:22:06.330Z,-0.26
2023-01-21T07:24:34.910Z,-0.38
2023-01-21T07:27:01.876Z,-0.50
2023-01-21T07:29:29.913Z,-0.34
2023-01-21T07:31:59.395Z,-0.47
2023-01-21T07:34:26.311Z,-0.15
2023-01-21T07:36:53.106Z,-0.35
2023-01-21T07:39:22.520Z,-0.23
2023-01-21T07:41:49.358Z,-0.45
2023-01-21T07:44:16.289Z,-0.67
2023-01-21T07:46:56.290Z,-0.55
2023-01-21T07:49:23.203Z,-0.53
2023-01-21T07:51:50.173Z,-0.53
2023-01-21T07:54:17.195Z,-0.51
2023-01-21T07:56:54.669Z,-0.41
2023-01-21T07:59:41.933Z,-0.35
2023-01-21T08:02:09.959Z,-0.25
2023-01-21T08:04:36.594Z,-0.16
2023-01-21T08:07:11.893Z,0.01
2023-01-21T08:09:41.895Z,-0.24
2023-01-21T08:12:09.444Z,-0.34
2023-01-21T08:14:35.974Z,0.01
2023-01-21T08:17:02.360Z,0.10
2023-01-21T08:19:28.995Z,-0.03
2023-01-21T08:21:55.553Z,0.32
2023-01-21T08:24:22.087Z,-0.20
2023-01-21T08:26:49.239Z,0.03
2023-01-21T08:29:19.256Z,-0.43
2023-01-21T08:31:46.192Z,-0.21
2023-01-21T08:34:15.326Z,-0.46
2023-01-21T08:36:42.013Z,-0.34
2023-01-21T08:39:09.276Z,0.36
2023-01-21T08:41:35.818Z,0.23
2023-01-21T08:44:02.263Z,0.21
2023-01-21T08:46:28.725Z,-0.29
2023-01-21T08:48:55.168Z,-0.08
2023-01-21T08:51:21.640Z,0.27
2023-01-21T08:53:51.579Z,0.46
2023-01-21T08:56:18.754Z,0.29
2023-01-21T08:58:45.466Z,0.44
2023-01-21T09:01:15.361Z,0.75
2023-01-21T09:03:42.004Z,0.52
2023-01-21T09:06:08.851Z,0.77
2023-01-21T09:08:36.539Z,0.19
2023-01-21T09:11:05.556Z,0.71
2023-01-21T09:13:39.929Z,0.38
2023-01-21T09:16:11.714Z,0.56
2023-01-21T09:18:38.491Z,0.86
2023-01-21T09:21:06.797Z,0.13
2023-01-21T09:23:34.802Z,0.52
2023-01-21T09:26:06.843Z,0.66
2023-01-21T09:28:42.482Z,0.62
2023-01-21T09:31:12.746Z,0.42
2023-01-21T09:33:41.197Z,0.70
2023-01-21T09:36:09.106Z,0.49
2023-01-21T09:38:35.629Z,0.76
2023-01-21T09:41:13.504Z,0.81
2023-01-21T09:43:46.360Z,0.78
2023-01-21T09:46:22.612Z,0.82
2023-01-21T09:48:49.637Z,0.54
2023-01-21T09:51:23.020Z,0.84
2023-01-21T09:53:53.087Z,0.98
2023-01-21T09:56:50.521Z,1.02
2023-01-21T09:59:30.445Z,0.94
2023-01-21T10:02:00.320Z,0.89
2023-01-21T10:04:48.521Z,0.90
2023-01-21T10:07:22.099Z,1.07
2023-01-21T10:10:05.504Z,0.93
2023-01-21T10:12:56.960Z,0.98
2023-01-21T10:15:26.655Z,1.16
2023-01-21T10:18:11.433Z,0.81
2023-01-21T10:21:07.741Z,1.00
2023-01-21T10:23:45.745Z,0.97
2023-01-21T10:26:14.730Z,0.76
2023-01-21T10:29:02.069Z,0.83
2023-01-21T10:31:38.675Z,0.77
2023-01-21T10:34:13.813Z,1.08
2023-01-21T10:36:50.751Z,0.96
2023-01-21T10:39:32.369Z,1.27
2023-01-21T10:42:36.982Z,1.57
2023-01-21T10:45:32.320Z,1.47
2023-01-21T10:48:21.756Z,1.35
2023-01-21T10:51:06.953Z,1.08
2023-01-21T10:54:08.291Z,1.31
2023-01-21T10:57:28.225Z,0.92
2023-01-21T11:00:14.667Z,1.26
2023-01-21T11:02:54.766Z,1.29
2023-01-21T11:05:27.732Z,1.17
2023-01-21T11:08:00.339Z,1.39
2023-01-21T11:10:28.152Z,1.45
2023-01-21T11:12:55.983Z,1.85
2023-01-21T11:15:23.913Z,1.59
2023-01-21T11:17:59.738Z,1.77
2023-01-21T11:20:39.077Z,1.54
2023-01-21T11:23:06.188Z,1.53
2023-01-21T11:25:41.500Z,1.90
2023-01-21T11:28:26.399Z,1.93
2023-01-21T11:31:06.766Z,1.95
2023-01-21T11:33:33.892Z,1.85
2023-01-21T11:36:14.080Z,2.02
2023-01-21T11:38:44.344Z,1.91
2023-01-21T11:41:13.808Z,2.16
2023-01-21T11:43:55.423Z,2.06
2023-01-21T11:46:54.433Z,1.99
2023-01-21T11:49:27.087Z,1.73
2023-01-21T11:52:14.195Z,2.08
2023-01-21T11:54:40.706Z,1.92
2023-01-21T11:57:27.307Z,1.96
2023-01-21T11:59:58.227Z,2.12
2023-01-21T12:02:44.342Z,2.00
2023-01-21T12:05:50.767Z,2.04
2023-01-21T12:08:24.790Z,2.25
2023-01-21T12:10:56.228Z,2.10
2023-01-21T12:14:08.986Z,2.35
2023-01-21T12:16:51.722Z,2.18
2023-01-21T12:19:40.215Z,2.39
2023-01-21T12:22:12.719Z,2.42
2023-01-21T12:24:58.781Z,2.41
2023-01-21T12:28:03.815Z,2.45
2023-01-21T12:31:04.962Z,2.49
2023-01-21T12:33:31.391Z,2.38
2023-01-21T12:36:11.556Z,2.33
2023-01-21T12:38:48.791Z,2.34
2023-01-21T12:41:18.209Z,2.35
2023-01-21T12:43:52.532Z,2.32
2023-01-21T12:46:24.698Z,2.44
2023-01-21T12:49:04.558Z,2.63
2023-01-21T12:51:41.841Z,2.48
2023-01-21T12:54:38.835Z,2.70
2023-01-21T12:57:16.687Z,2.15
2023-01-21T13:00:01.183Z,2.41
2023-01-21T13:02:38.468Z,2.63
2023-01-21T13:05:12.803Z,2.44
2023-01-21T13:08:16.872Z,2.51
2023-01-21T13:10:49.682Z,2.36
2023-01-21T13:13:51.629Z,2.52
2023-01-21T13:16:19.162Z,2.22
2023-01-21T13:18:51.319Z,2.28
2023-01-21T13:21:37.933Z,2.42
2023-01-21T13:24:16.490Z,2.38
2023-01-21T13:26:59.898Z,2.43
2023-01-21T13:29:37.975Z,2.59
2023-01-21T13:32:33.925Z,2.50
2023-01-21T13:35:23.794Z,2.53
2023-01-21T13:38:13.337Z,2.58
2023-01-21T13:41:04.133Z,2.51
2023-01-21T13:43:30.582Z,2.49
2023-01-21T13:46:29.213Z,2.52
2023-01-21T13:49:14.031Z,2.65
2023-01-21T13:52:05.029Z,2.75
2023-01-21T13:54:37.423Z,2.58
2023-01-21T13:57:33.275Z,2.28
2023-01-21T14:00:16.766Z,2.50
2023-01-21T14:02:59.974Z,2.36
2023-01-21T14:05:37.783Z,2.39
2023-01-21T14:08:17.600Z,2.49
2023-01-21T14:10:56.528Z,2.45
2023-01-21T14:14:01.655Z,2.37
2023-01-21T14:16:55.211Z,2.53
2023-01-21T14:19:36.748Z,2.55
2023-01-21T14:22:12.608Z,2.38
2023-01-21T14:24:45.159Z,2.43
2023-01-21T14:27:19.402Z,2.52
2023-01-21T14:33:35.696Z,2.27
2023-01-21T14:36:15.883Z,2.02
2023-01-21T14:39:21.251Z,2.27
2023-01-21T14:42:11.087Z,2.49
2023-01-21T14:44:45.173Z,2.07
2023-01-21T14:47:17.033Z,2.28
2023-01-21T14:49:47.651Z,2.27
2023-01-21T14:52:39.868Z,2.58
2023-01-21T14:55:29.855Z,2.39
2023-01-21T14:58:01.926Z,2.47
2023-01-21T15:00:32.851Z,2.28
2023-01-21T15:07:22.407Z,2.45
2023-01-21T15:09:56.265Z,2.15
2023-01-21T15:13:43.822Z,2.17
2023-01-21T15:16:50.222Z,2.37
2023-01-21T15:19:35.152Z,2.24
2023-01-21T15:22:41.116Z,2.48
2023-01-21T15:25:13.816Z,2.39
2023-01-21T15:28:07.967Z,2.09
2023-01-21T15:30:58.352Z,2.33
2023-01-21T15:33:51.133Z,2.06
2023-01-21T15:36:49.789Z,2.06
2023-01-21T15:39:28.593Z,2.29
2023-01-21T15:46:26.761Z,2.08
2023-01-21T15:49:19.792Z,1.77
2023-01-21T15:52:07.936Z,1.73
2023-01-21T15:54:49.849Z,1.57
2023-01-21T15:58:11.676Z,1.58
2023-01-21T16:00:53.934Z,1.49
2023-01-21T16:03:44.325Z,1.64
2023-01-21T16:06:25.969Z,1.46
2023-01-21T16:09:09.553Z,1.43
2023-01-21T16:12:20.964Z,1.45
2023-01-21T16:15:24.681Z,1.22
2023-01-21T16:18:10.378Z,1.07
2023-01-21T16:20:41.347Z,0.96
2023-01-21T16:23:08.330Z,1.33
2023-01-21T16:25:45.221Z,1.18
2023-01-21T16:28:11.862Z,1.05
2023-01-21T16:30:38.433Z,0.92
2023-01-21T16:33:11.950Z,0.98
2023-01-21T16:35:51.253Z,0.81
2023-01-21T16:38:24.026Z,0.51
2023-01-21T16:41:10.806Z,0.74
2023-01-21T16:43:51.182Z,1.00
2023-01-21T16:46:22.608Z,0.63
2023-01-21T16:48:57.319Z,0.80
2023-01-21T16:51:28.936Z,0.82
2023-01-21T16:54:20.339Z,0.90
2023-01-21T16:57:33.736Z,0.68
2023-01-21T17:00:02.705Z,0.63
2023-01-21T17:02:33.895Z,0.62
2023-01-21T17:05:08.359Z,0.63
2023-01-21T17:07:42.224Z,0.76
2023-01-21T17:10:14.703Z,0.94
2023-01-21T17:12:47.584Z,1.05
2023-01-21T17:15:25.670Z,0.72
2023-01-21T17:17:58.874Z,0.90
2023-01-21T17:20:50.456Z,0.85
2023-01-21T17:23:30.568Z,0.77
2023-01-21T17:26:52.778Z,0.56
2023-01-21T17:29:40.154Z,0.93
2023-01-21T17:32:33.903Z,0.71
2023-01-21T17:35:28.876Z,0.57
2023-01-21T17:38:06.554Z,0.85
2023-01-21T17:43:54.784Z,0.97
2023-01-21T17:47:09.477Z,0.61
2023-01-21T17:49:48.203Z,0.78
2023-01-21T17:52:25.442Z,0.80
2023-01-21T18:02:14.485Z,0.49
2023-01-21T18:04:44.109Z,0.56
2023-01-21T18:07:25.812Z,0.68
2023-01-21T18:09:53.693Z,0.46
2023-01-21T18:12:20.541Z,0.62
2023-01-21T18:14:47.677Z,0.87
2023-01-21T18:17:18.967Z,0.76
2023-01-21T18:19:45.983Z,0.68
2023-01-21T18:22:26.582Z,0.85
2023-01-21T18:24:53.014Z,0.72
2023-01-21T18:27:20.713Z,0.60
2023-01-21T18:29:48.090Z,0.87
2023-01-21T18:32:15.568Z,0.76
2023-01-21T18:34:42.106Z,0.79
2023-01-21T18:37:13.660Z,0.91
2023-01-21T18:39:41.134Z,0.62
2023-01-21T18:42:14.120Z,0.74
2023-01-21T18:44:40.675Z,0.75
2023-01-21T18:47:14.412Z,1.00
2023-01-21T18:49:41.351Z,0.86
2023-01-21T18:52:10.637Z,0.85
2023-01-21T18:54:37.798Z,0.97
2023-01-21T18:57:10.316Z,0.66
2023-01-21T18:59:37.245Z,0.85
2023-01-21T19:02:04.163Z,0.81
2023-01-21T19:04:30.665Z,0.90
2023-01-21T19:06:57.329Z,0.79
2023-01-21T19:09:24.751Z,1.20
2023-01-21T19:11:52.310Z,1.01
2023-01-21T19:14:18.826Z,0.87
2023-01-21T19:16:45.545Z,1.09
2023-01-21T19:19:19.113Z,0.79
2023-01-21T19:21:45.711Z,0.82
2023-01-21T19:24:12.551Z,1.06
2023-01-21T19:26:39.563Z,0.99
2023-01-21T19:29:25.111Z,0.89
2023-01-21T19:32:04.775Z,0.78
2023-01-21T19:34:37.468Z,0.77
2023-01-21T19:37:10.721Z,0.47
2023-01-21T19:39:37.486Z,0.60
2023-01-21T19:42:27.893Z,0.42
2023-01-21T19:44:54.943Z,0.82
2023-01-21T19:47:38.482Z,0.60
2023-01-21T19:50:09.710Z,0.48
2023-01-21T19:52:43.011Z,0.57
2023-01-21T19:55:24.398Z,0.58
2023-01-21T19:58:02.464Z,0.55
2023-01-21T20:00:31.875Z,0.58
2023-01-21T20:03:05.294Z,0.44
2023-01-21T20:05:35.748Z,0.91
2023-01-21T20:08:02.868Z,0.86
2023-01-21T20:10:40.694Z,0.72
2023-01-21T20:13:18.495Z,0.89
2023-01-21T20:15:55.209Z,0.88
2023-01-21T20:18:58.729Z,0.69
2023-01-21T20:22:01.382Z,0.87
2023-01-21T20:24:36.825Z,0.84
2023-01-21T20:27:06.700Z,1.14
2023-01-21T20:29:44.473Z,0.90
2023-01-21T20:32:11.311Z,1.19
2023-01-21T20:34:37.897Z,1.02
2023-01-21T20:37:04.630Z,1.09
2023-01-21T20:39:37.122Z,0.96
2023-01-21T20:44:15.375Z,1.04
2023-01-21T20:45:40.066Z,1.03
2023-01-21T20:48:50.537Z,0.96
2023-01-21T20:51:25.720Z,0.92
2023-01-21T20:54:01.161Z,0.91
2023-01-21T20:56:31.072Z,1.02
2023-01-21T20:58:58.422Z,1.07
2023-01-21T21:01:30.215Z,1.14
2023-01-21T21:04:07.575Z,1.44
2023-01-21T21:06:38.224Z,1.04
2023-01-21T21:09:05.141Z,1.17
2023-01-21T21:11:31.806Z,1.38
2023-01-21T21:14:10.175Z,1.78
2023-01-21T21:16:50.868Z,0.95
2023-01-21T21:22:29.144Z,1.12
2023-01-21T21:28:03.796Z,1.13
2023-01-21T21:33:43.964Z,1.11
2023-01-21T21:36:30.120Z,0.93
2023-01-21T21:42:26.587Z,1.23
2023-01-21T21:45:07.294Z,1.19
2023-01-21T21:48:00.259Z,1.06
2023-01-21T21:51:34.007Z,1.13
2023-01-21T21:53:53.142Z,1.05
2023-01-21T21:56:24.125Z,0.94
2023-01-21T21:59:08.579Z,0.97
2023-01-21T22:01:52.160Z,0.98
2023-01-21T22:04:27.990Z,1.14
2023-01-21T22:06:58.364Z,1.15
2023-01-21T22:09:27.828Z,1.14
2023-01-21T22:11:54.363Z,0.87
2023-01-21T22:14:20.892Z,1.23
2023-01-21T22:16:49.785Z,1.44
2023-01-21T22:19:16.308Z,0.92
2023-01-21T22:21:42.858Z,1.05
2023-01-21T22:24:09.563Z,0.95
2023-01-21T22:26:36.451Z,0.97
2023-01-21T22:29:04.002Z,0.87
2023-01-21T22:31:32.483Z,1.12
2023-01-21T22:34:00.048Z,0.83
2023-01-21T22:40:09.427Z,0.93
2023-01-21T22:42:35.888Z,1.04
2023-01-21T22:45:02.556Z,0.98
2023-01-21T22:47:32.027Z,1.07
2023-01-21T22:49:58.501Z,1.02
2023-01-21T22:52:28.743Z,0.81
2023-01-21T22:54:55.320Z,1.28
2023-01-21T22:57:21.705Z,1.15
2023-01-21T22:59:48.143Z,0.89
2023-01-21T23:02:14.573Z,1.02
2023-01-21T23:04:41.358Z,0.90
2023-01-21T23:07:08.053Z,0.98
2023-01-21T23:09:34.489Z,1.10
2023-01-21T23:12:05.304Z,0.65
2023-01-21T23:14:34.013Z,0.92
2023-01-21T23:17:00.903Z,0.79
2023-01-21T23:19:27.471Z,0.57
2023-01-21T23:21:53.904Z,1.16
2023-01-21T23:24:20.446Z,0.97
2023-01-21T23:26:46.897Z,1.09
2023-01-21T23:29:13.415Z,0.98
2023-01-21T23:31:40.094Z,1.07
2023-01-21T23:34:06.780Z,1.13
2023-01-21T23:36:33.609Z,0.98
2023-01-21T23:39:00.119Z,1.22
2023-01-21T23:41:26.987Z,1.00
2023-01-21T23:43:53.507Z,1.08
2023-01-21T23:46:20.397Z,1.43
2023-01-21T23:48:47.151Z,0.79
2023-01-21T23:51:15.439Z,1.17
2023-01-21T23:53:42.045Z,1.21
2023-01-21T23:56:08.566Z,1.23
2023-01-21T23:58:35.304Z,1.27
